Time;durP1;ratioP1;P1;durP2;ratioP2;P2;SDS_P1;SDS_P2;PMS_P1;PMS_P2;Temp;Humidity;BMP_temperature;BMP_pressure;BME280_temperature;BME280_humidity;BME280_pressure;Samples;Min_cycle;Max_cycle;Signal;HPM_P1;HPM_P2
2021/12/13 00:02:23;;;;;;;1.50;1.40;;;19.60;38.90;;;;;;5001012;28;20436;-60
2021/12/13 00:04:58;;;;;;;1.73;1.63;;;19.60;38.90;;;;;;5003746;28;20474;-60
2021/12/13 00:07:32;;;;;;;1.70;1.40;;;19.60;38.80;;;;;;4999058;28;20433;-61
2021/12/13 00:10:05;;;;;;;1.80;1.70;;;19.60;38.90;;;;;;4997561;28;20500;-60
2021/12/13 00:12:35;;;;;;;2.17;1.70;;;19.60;38.90;;;;;;5004070;28;20454;-60
2021/12/13 00:15:06;;;;;;;1.73;1.50;;;19.60;38.90;;;;;;5004003;28;20943;-60
2021/12/13 00:17:59;;;;;;;1.30;1.20;;;19.60;38.90;;;;;;5000441;28;20421;-61
2021/12/13 00:20:37;;;;;;;1.27;1.17;;;19.60;38.90;;;;;;4995133;28;20430;-60
2021/12/13 00:23:16;;;;;;;2.70;1.60;;;19.60;38.90;;;;;;5001676;28;20465;-60
2021/12/13 00:25:46;;;;;;;1.50;1.40;;;19.60;38.90;;;;;;5001750;28;20569;-60
2021/12/13 00:28:15;;;;;;;1.50;1.40;;;19.60;38.90;;;;;;5002056;28;21037;-60
2021/12/13 00:31:04;;;;;;;1.77;1.67;;;19.60;38.90;;;;;;5005153;28;20452;-60
2021/12/13 00:33:39;;;;;;;1.63;1.40;;;19.60;38.90;;;;;;5003056;28;20450;-60
2021/12/13 00:36:21;;;;;;;1.77;1.50;;;19.60;38.90;;;;;;5000361;28;20457;-60
2021/12/13 00:38:53;;;;;;;1.50;1.40;;;19.60;38.90;;;;;;5004411;28;20461;-59
2021/12/13 00:41:22;;;;;;;1.50;1.40;;;19.60;38.90;;;;;;5001754;28;20433;-60
2021/12/13 00:44:19;;;;;;;1.33;1.23;;;19.60;38.90;;;;;;5003331;28;20489;-60
2021/12/13 00:46:47;;;;;;;2.10;1.53;;;19.60;38.90;;;;;;5000469;28;20457;-60
2021/12/13 00:49:15;;;;;;;1.20;1.10;;;19.60;38.90;;;;;;5001828;28;20544;-60
2021/12/13 00:51:50;;;;;;;1.40;1.30;;;19.60;38.90;;;;;;5001342;28;20463;-59
2021/12/13 00:54:21;;;;;;;1.40;1.30;;;19.60;38.90;;;;;;5005459;28;20472;-59
2021/12/13 00:56:58;;;;;;;1.67;1.47;;;19.60;38.90;;;;;;5004266;28;20436;-59
2021/12/13 00:59:38;;;;;;;1.50;1.10;;;19.60;38.90;;;;;;5003882;28;20512;-59
2021/12/13 01:02:29;;;;;;;1.20;1.10;;;19.60;38.90;;;;;;5003662;28;20468;-60
2021/12/13 01:05:17;;;;;;;1.27;1.17;;;19.60;38.90;;;;;;5005111;28;20472;-60
2021/12/13 01:08:09;;;;;;;1.17;1.07;;;19.60;38.90;;;;;;5001735;28;20811;-60
2021/12/13 01:10:52;;;;;;;1.80;1.70;;;19.60;38.90;;;;;;5002999;28;20867;-60
2021/12/13 01:13:23;;;;;;;1.10;1.00;;;19.60;38.90;;;;;;5007857;28;20450;-59
2021/12/13 01:15:55;;;;;;;1.20;1.10;;;19.60;38.90;;;;;;5006154;28;21004;-59
2021/12/13 01:18:30;;;;;;;1.30;1.20;;;19.60;38.90;;;;;;4998290;28;20450;-59
2021/12/13 01:21:32;;;;;;;1.40;1.30;;;19.60;38.90;;;;;;5007971;28;20512;-59
2021/12/13 01:24:06;;;;;;;1.20;1.10;;;19.60;38.90;;;;;;5002929;28;20461;-59
2021/12/13 01:26:39;;;;;;;1.30;1.20;;;19.50;38.80;;;;;;5000336;28;20460;-60
2021/12/13 01:29:13;;;;;;;1.07;1.00;;;19.60;38.90;;;;;;5001851;28;20424;-60
2021/12/13 01:31:44;;;;;;;1.20;1.10;;;19.60;38.90;;;;;;4998978;28;20455;-60
2021/12/13 01:34:11;;;;;;;1.27;1.13;;;19.60;38.90;;;;;;4989535;28;20438;-59
2021/12/13 01:36:46;;;;;;;1.30;1.20;;;19.60;38.90;;;;;;5001486;28;20825;-59
2021/12/13 01:39:16;;;;;;;2.17;1.30;;;19.50;38.80;;;;;;5000941;28;20444;-59
2021/12/13 01:41:53;;;;;;;1.40;1.30;;;19.60;38.90;;;;;;5001570;28;20535;-59
2021/12/13 01:44:25;;;;;;;1.20;1.10;;;19.60;38.90;;;;;;5000077;28;20444;-59
2021/12/13 01:47:19;;;;;;;1.37;1.20;;;19.50;38.80;;;;;;5002890;28;20535;-60
2021/12/13 01:49:52;;;;;;;1.30;1.20;;;19.60;38.90;;;;;;4996957;28;20511;-60
2021/12/13 01:52:26;;;;;;;1.20;1.10;;;19.60;38.90;;;;;;5000847;28;20953;-59
2021/12/13 01:54:55;;;;;;;1.30;1.20;;;19.60;38.90;;;;;;5004624;28;20541;-59
2021/12/13 01:57:27;;;;;;;1.20;1.10;;;19.60;38.90;;;;;;5000794;28;20438;-59
2021/12/13 02:00:08;;;;;;;1.10;1.00;;;19.60;38.90;;;;;;5001270;28;20417;-59
2021/12/13 02:02:41;;;;;;;1.20;1.00;;;19.50;38.80;;;;;;5001705;28;20817;-59
2021/12/13 02:05:13;;;;;;;1.20;1.10;;;19.60;38.90;;;;;;4997966;28;20480;-59
2021/12/13 02:07:46;;;;;;;0.90;0.90;;;19.60;38.90;;;;;;5001774;28;20548;-59
2021/12/13 02:10:27;;;;;;;1.00;1.00;;;19.60;39.60;;;;;;4997596;28;20545;-59
2021/12/13 02:12:59;;;;;;;1.57;1.17;;;19.60;39.60;;;;;;4999652;28;20530;-59
2021/12/13 02:18:16;;;;;;;1.20;1.10;;;19.60;38.90;;;;;;4999283;28;20457;-59
2021/12/13 02:20:47;;;;;;;1.30;1.20;;;19.60;38.90;;;;;;5002265;28;20436;-59
2021/12/13 02:23:13;;;;;;;1.53;1.10;;;19.60;39.60;;;;;;4999982;28;20451;-59
2021/12/13 02:25:45;;;;;;;1.23;1.00;;;19.60;38.90;;;;;;4997967;28;21201;-59
2021/12/13 02:28:24;;;;;;;1.10;1.00;;;19.60;38.90;;;;;;5003667;28;20543;-59
2021/12/13 02:31:11;;;;;;;1.30;1.20;;;19.60;38.90;;;;;;4999533;28;20436;-59
2021/12/13 02:33:41;;;;;;;1.10;1.00;;;19.60;38.90;;;;;;5004049;28;20957;-59
2021/12/13 02:36:13;;;;;;;1.30;1.20;;;19.50;38.80;;;;;;5003391;28;20428;-59
2021/12/13 02:38:41;;;;;;;1.73;1.10;;;19.50;38.80;;;;;;4999777;28;20484;-59
2021/12/13 02:41:08;;;;;;;0.93;0.83;;;19.60;38.90;;;;;;5006526;28;21001;-58
2021/12/13 02:43:38;;;;;;;1.77;1.67;;;19.50;39.50;;;;;;5003170;28;20425;-59
2021/12/13 02:46:04;;;;;;;1.17;1.07;;;19.60;38.90;;;;;;5000142;28;20447;-59
2021/12/13 02:48:38;;;;;;;1.10;1.00;;;19.50;38.80;;;;;;4997916;28;20492;-58
2021/12/13 02:51:11;;;;;;;1.20;1.00;;;19.60;38.90;;;;;;4995315;28;20442;-59
2021/12/13 02:53:44;;;;;;;1.10;1.00;;;19.60;38.90;;;;;;5003913;28;20842;-59
2021/12/13 02:56:11;;;;;;;1.00;0.90;;;19.50;38.80;;;;;;5001095;28;20593;-58
2021/12/13 02:58:38;;;;;;;1.20;1.10;;;19.50;38.80;;;;;;5000832;28;20941;-58
2021/12/13 03:01:12;;;;;;;1.40;1.10;;;19.50;38.80;;;;;;5002196;28;20544;-58
2021/12/13 03:03:43;;;;;;;1.20;1.10;;;19.60;38.90;;;;;;4999792;28;20443;-59
2021/12/13 03:06:13;;;;;;;0.90;0.90;;;19.50;38.80;;;;;;4996925;28;20489;-58
2021/12/13 03:08:43;;;;;;;1.10;1.00;;;19.50;38.80;;;;;;5002803;28;20979;-59
2021/12/13 03:11:21;;;;;;;1.30;1.20;;;19.50;38.80;;;;;;5002390;28;20805;-59
2021/12/13 03:13:51;;;;;;;1.23;1.13;;;19.50;38.80;;;;;;5005525;28;20830;-58
2021/12/13 03:16:20;;;;;;;1.23;1.13;;;19.50;38.80;;;;;;4997495;28;20516;-58
2021/12/13 03:19:10;;;;;;;1.03;0.90;;;19.50;38.80;;;;;;5000345;28;20450;-59
2021/12/13 03:22:00;;;;;;;1.53;1.10;;;19.50;38.80;;;;;;4991026;28;20861;-58
2021/12/13 03:24:42;;;;;;;1.20;1.10;;;19.50;38.80;;;;;;5002570;28;20453;-58
2021/12/13 03:27:23;;;;;;;0.97;0.87;;;19.50;38.80;;;;;;4999427;28;20458;-58
2021/12/13 03:30:04;;;;;;;2.33;1.10;;;19.50;38.80;;;;;;5003766;28;20509;-58
2021/12/13 03:32:37;;;;;;;1.20;1.10;;;19.50;38.80;;;;;;4998238;28;20536;-58
2021/12/13 03:35:26;;;;;;;1.10;1.00;;;19.50;38.80;;;;;;4998220;28;20429;-59
2021/12/13 03:38:02;;;;;;;1.33;1.23;;;19.50;38.80;;;;;;4997839;28;20453;-58
2021/12/13 03:40:30;;;;;;;1.00;0.90;;;19.50;38.80;;;;;;4999893;28;20427;-59
2021/12/13 03:43:02;;;;;;;0.90;0.90;;;19.50;38.80;;;;;;5001968;28;20425;-58
2021/12/13 03:45:34;;;;;;;1.40;1.00;;;19.50;38.80;;;;;;5003715;28;20912;-58
2021/12/13 03:48:01;;;;;;;0.90;0.90;;;19.50;38.80;;;;;;4996314;28;20932;-58
2021/12/13 03:50:34;;;;;;;0.80;0.80;;;19.50;38.80;;;;;;4999846;28;20599;-58
2021/12/13 03:53:04;;;;;;;1.63;1.07;;;19.50;38.80;;;;;;5003712;28;20461;-58
2021/12/13 03:55:32;;;;;;;0.80;0.80;;;19.50;38.80;;;;;;4999467;28;20464;-59
2021/12/13 03:58:01;;;;;;;1.17;1.00;;;19.50;38.80;;;;;;5002798;28;20435;-58
2021/12/13 04:00:31;;;;;;;1.90;1.00;;;19.50;38.80;;;;;;4998935;28;20784;-58
2021/12/13 04:02:59;;;;;;;1.20;1.10;;;19.50;38.80;;;;;;5003437;28;20446;-58
2021/12/13 04:05:28;;;;;;;1.20;1.00;;;19.50;38.80;;;;;;5004674;28;20449;-58
2021/12/13 04:07:57;;;;;;;1.10;1.00;;;19.50;38.80;;;;;;5004169;28;20906;-58
2021/12/13 04:10:26;;;;;;;1.30;1.00;;;19.50;38.80;;;;;;5000739;28;20442;-58
2021/12/13 04:12:57;;;;;;;1.20;1.10;;;19.50;38.80;;;;;;5003496;28;20493;-58
2021/12/13 04:15:35;;;;;;;1.10;1.00;;;19.50;38.80;;;;;;5004845;28;20461;-58
2021/12/13 04:18:15;;;;;;;0.93;0.87;;;19.50;38.80;;;;;;5003266;28;20467;-58
2021/12/13 04:20:43;;;;;;;1.20;1.10;;;19.50;38.80;;;;;;5001834;28;20450;-58
2021/12/13 04:23:22;;;;;;;2.20;0.90;;;19.50;38.80;;;;;;5006126;28;20453;-59
2021/12/13 04:25:50;;;;;;;1.30;1.20;;;19.50;38.80;;;;;;5000881;28;20484;-58
2021/12/13 04:28:46;;;;;;;1.13;1.10;;;19.50;38.80;;;;;;5005680;28;20453;-58
2021/12/13 04:31:15;;;;;;;0.90;0.90;;;19.50;38.80;;;;;;4998994;28;20469;-58
2021/12/13 04:33:45;;;;;;;0.80;0.80;;;19.50;38.80;;;;;;5002127;28;20482;-59
2021/12/13 04:36:25;;;;;;;1.13;1.03;;;19.50;38.80;;;;;;5002294;28;20424;-58
2021/12/13 04:39:11;;;;;;;1.13;0.87;;;19.50;38.80;;;;;;5002865;28;20445;-58
2021/12/13 04:41:43;;;;;;;0.87;0.80;;;19.50;38.80;;;;;;4999086;28;20456;-58
2021/12/13 04:44:19;;;;;;;1.10;1.00;;;19.50;38.80;;;;;;5004819;28;20480;-58
2021/12/13 04:46:51;;;;;;;1.43;1.33;;;19.50;38.80;;;;;;5001009;28;20567;-59
2021/12/13 04:49:19;;;;;;;1.00;0.90;;;19.50;38.80;;;;;;5004504;28;20436;-58
2021/12/13 04:52:01;;;;;;;0.93;0.80;;;19.50;38.80;;;;;;5002614;28;20552;-58
2021/12/13 04:54:29;;;;;;;1.00;0.90;;;19.50;38.80;;;;;;4997382;28;21011;-58
2021/12/13 04:56:57;;;;;;;1.13;0.80;;;19.50;38.80;;;;;;5000502;28;20440;-58
2021/12/13 04:59:23;;;;;;;1.50;1.10;;;19.50;38.80;;;;;;5000536;28;20452;-58
2021/12/13 05:01:53;;;;;;;0.80;0.80;;;19.50;38.80;;;;;;4989287;28;20996;-58
2021/12/13 05:04:21;;;;;;;0.83;0.80;;;19.50;38.80;;;;;;5004096;28;21072;-58
2021/12/13 05:06:48;;;;;;;1.83;0.90;;;19.50;38.80;;;;;;4999053;28;20810;-58
2021/12/13 05:09:16;;;;;;;1.00;0.87;;;19.50;38.80;;;;;;4997674;28;20827;-58
2021/12/13 05:11:52;;;;;;;1.20;0.90;;;19.50;38.80;;;;;;5002783;28;20429;-59
2021/12/13 05:14:31;;;;;;;0.97;0.80;;;19.50;38.80;;;;;;5002773;28;20465;-58
2021/12/13 05:16:59;;;;;;;1.00;0.90;;;19.50;38.80;;;;;;5002379;28;20417;-58
2021/12/13 05:19:32;;;;;;;1.20;0.90;;;19.50;38.80;;;;;;4998166;28;20420;-58
2021/12/13 05:21:59;;;;;;;1.03;0.90;;;19.50;38.80;;;;;;5005066;28;20465;-58
2021/12/13 05:24:31;;;;;;;1.13;1.07;;;19.50;38.80;;;;;;5000137;28;20440;-58
2021/12/13 05:27:07;;;;;;;1.00;1.00;;;19.50;38.80;;;;;;4998748;28;20788;-58
2021/12/13 05:29:34;;;;;;;1.00;0.90;;;19.50;38.80;;;;;;5000266;28;20417;-59
2021/12/13 05:32:30;;;;;;;1.67;1.00;;;19.50;38.80;;;;;;5005427;28;20450;-58
2021/12/13 05:35:13;;;;;;;2.53;0.80;;;19.60;38.90;;;;;;4998226;28;20458;-58
2021/12/13 05:37:54;;;;;;;1.53;1.20;;;19.60;38.90;;;;;;5008403;28;20545;-58
2021/12/13 05:40:24;;;;;;;0.90;0.70;;;19.60;38.90;;;;;;4999909;28;20466;-59
2021/12/13 05:42:57;;;;;;;0.90;0.90;;;19.60;38.90;;;;;;5002175;28;20453;-58
2021/12/13 05:45:37;;;;;;;0.73;0.70;;;19.60;38.90;;;;;;4997828;28;20441;-62
2021/12/13 05:48:15;;;;;;;0.97;0.87;;;19.60;38.90;;;;;;4991667;28;20453;-61
2021/12/13 05:50:55;;;;;;;0.77;0.70;;;19.60;38.90;;;;;;5000786;28;21027;-62
2021/12/13 05:53:28;;;;;;;0.80;0.77;;;19.60;38.90;;;;;;5000175;28;20504;-61
2021/12/13 05:55:56;;;;;;;0.90;0.80;;;19.60;38.90;;;;;;4988509;28;20476;-61
2021/12/13 05:58:39;;;;;;;0.70;0.67;;;19.60;38.90;;;;;;5002005;28;20464;-61
2021/12/13 06:01:14;;;;;;;0.80;0.80;;;19.60;38.90;;;;;;4999631;28;20439;-64
2021/12/13 06:03:44;;;;;;;0.80;0.80;;;19.60;38.90;;;;;;5000370;28;20440;-61
2021/12/13 06:06:14;;;;;;;0.70;0.70;;;19.60;38.90;;;;;;5003628;28;20458;-61
2021/12/13 06:08:48;;;;;;;0.60;0.60;;;19.60;38.90;;;;;;5001698;28;20489;-60
2021/12/13 06:11:20;;;;;;;1.77;0.80;;;19.70;39.00;;;;;;4999470;28;20489;-61
2021/12/13 06:13:56;;;;;;;0.90;0.80;;;19.70;39.00;;;;;;4999552;28;20453;-61
2021/12/13 06:16:34;;;;;;;0.80;0.80;;;19.70;39.00;;;;;;5004493;28;20437;-61
2021/12/13 06:19:32;;;;;;;1.20;1.00;;;19.70;39.00;;;;;;4998626;28;20440;-60
2021/12/13 06:22:09;;;;;;;1.20;1.10;;;19.70;39.00;;;;;;5004691;28;20504;-60
2021/12/13 06:24:46;;;;;;;0.80;0.80;;;19.70;39.00;;;;;;4999151;28;20978;-60
2021/12/13 06:27:28;;;;;;;1.00;0.90;;;19.70;39.00;;;;;;5005153;28;20439;-60
2021/12/13 06:30:18;;;;;;;0.80;0.80;;;19.70;39.00;;;;;;4999764;28;20432;-59
2021/12/13 06:33:04;;;;;;;1.60;1.00;;;19.70;39.00;;;;;;5003994;28;20861;-63
2021/12/13 06:35:44;;;;;;;1.70;0.90;;;19.70;39.00;;;;;;5002717;28;20794;-62
2021/12/13 06:38:18;;;;;;;0.90;0.80;;;19.70;39.00;;;;;;4999390;28;20446;-63
2021/12/13 06:40:53;;;;;;;1.70;0.90;;;19.70;39.00;;;;;;5005068;28;20576;-62
2021/12/13 06:43:49;;;;;;;1.87;0.83;;;19.70;39.00;;;;;;4999668;28;20448;-63
2021/12/13 06:46:24;;;;;;;1.10;1.00;;;19.70;39.00;;;;;;4996144;28;20925;-64
2021/12/13 06:49:01;;;;;;;1.70;1.00;;;19.70;39.00;;;;;;4998267;28;20456;-64
2021/12/13 06:52:19;;;;;;;0.80;0.80;;;19.70;39.00;;;;;;5001066;28;20445;-62
2021/12/13 06:55:10;;;;;;;1.00;0.90;;;19.70;39.00;;;;;;4983886;28;20458;-61
2021/12/13 06:57:47;;;;;;;0.93;0.90;;;19.70;39.00;;;;;;4994507;28;20448;-61
2021/12/13 07:00:26;;;;;;;1.43;0.93;;;19.70;39.00;;;;;;4999096;28;20476;-61
2021/12/13 07:02:54;;;;;;;1.57;1.00;;;19.70;39.00;;;;;;5003524;28;20970;-61
2021/12/13 07:05:27;;;;;;;0.90;0.70;;;19.70;39.00;;;;;;5004412;28;20468;-60
2021/12/13 07:08:00;;;;;;;1.40;1.00;;;19.70;39.00;;;;;;5003173;28;20460;-60
2021/12/13 07:10:43;;;;;;;1.47;0.97;;;19.70;39.00;;;;;;5000746;28;20482;-60
2021/12/13 07:13:39;;;;;;;1.10;0.93;;;19.80;39.00;;;;;;4996450;28;20456;-60
2021/12/13 07:16:17;;;;;;;1.20;1.10;;;19.80;39.00;;;;;;5002659;28;20947;-61
2021/12/13 07:19:03;;;;;;;1.20;1.00;;;19.70;39.00;;;;;;4984313;28;20466;-60
2021/12/13 07:21:32;;;;;;;1.20;0.93;;;19.70;39.00;;;;;;4997004;28;20476;-60
2021/12/13 07:24:05;;;;;;;0.90;0.80;;;19.70;39.00;;;;;;5004395;28;20472;-61
2021/12/13 07:26:38;;;;;;;1.07;0.90;;;19.80;39.80;;;;;;5000372;28;20563;-61
2021/12/13 07:29:09;;;;;;;1.83;1.10;;;19.80;39.00;;;;;;5000786;28;20833;-61
2021/12/13 07:31:36;;;;;;;0.90;0.80;;;19.80;39.00;;;;;;5000421;28;20496;-60
2021/12/13 07:34:20;;;;;;;1.30;0.90;;;19.80;39.00;;;;;;4999831;28;20590;-61
2021/12/13 07:36:55;;;;;;;1.10;0.80;;;19.80;39.00;;;;;;5003548;28;20469;-60
2021/12/13 07:39:26;;;;;;;1.10;0.90;;;19.80;39.00;;;;;;5002691;28;20988;-60
2021/12/13 07:41:57;;;;;;;0.90;0.90;;;19.80;39.00;;;;;;5002167;28;20500;-60
2021/12/13 07:44:40;;;;;;;5.80;1.00;;;19.80;39.00;;;;;;5003972;28;20463;-60
2021/12/13 07:47:20;;;;;;;2.80;1.10;;;19.80;39.00;;;;;;5002483;28;20950;-59
2021/12/13 07:49:49;;;;;;;1.07;0.97;;;19.80;39.80;;;;;;5008126;28;21029;-60
2021/12/13 07:52:38;;;;;;;1.07;0.97;;;19.80;39.00;;;;;;5005030;28;20461;-60
2021/12/13 07:55:22;;;;;;;0.90;0.90;;;19.80;39.00;;;;;;5005532;28;20464;-60
2021/12/13 07:57:49;;;;;;;1.50;1.00;;;19.80;39.00;;;;;;5006990;28;20489;-60
2021/12/13 08:00:20;;;;;;;1.10;1.00;;;19.80;39.00;;;;;;5006047;28;20442;-60
2021/12/13 08:03:01;;;;;;;3.23;1.13;;;19.80;39.00;;;;;;5001806;28;20461;-60
2021/12/13 08:05:32;;;;;;;1.13;0.97;;;19.80;39.00;;;;;;5003457;28;20537;-59
2021/12/13 08:08:01;;;;;;;1.20;0.93;;;19.80;39.00;;;;;;5002414;28;20942;-59
2021/12/13 08:10:34;;;;;;;0.90;0.90;;;19.80;39.00;;;;;;5005896;28;20470;-59
2021/12/13 08:13:10;;;;;;;1.00;0.80;;;19.80;39.00;;;;;;4999816;28;21066;-59
2021/12/13 08:15:51;;;;;;;1.30;1.20;;;19.70;39.00;;;;;;5002062;28;20527;-59
2021/12/13 08:18:22;;;;;;;1.10;1.00;;;19.70;39.00;;;;;;5003332;28;20458;-59
2021/12/13 08:20:53;;;;;;;0.80;0.73;;;19.70;39.00;;;;;;5003876;28;20465;-59
2021/12/13 08:23:25;;;;;;;0.87;0.87;;;19.70;39.00;;;;;;5006365;28;20959;-59
2021/12/13 08:25:57;;;;;;;1.97;1.00;;;19.70;39.00;;;;;;5002069;28;20429;-59
2021/12/13 08:28:42;;;;;;;1.07;0.97;;;19.70;39.00;;;;;;4999835;28;20456;-59
2021/12/13 08:31:17;;;;;;;1.33;1.00;;;19.70;39.00;;;;;;5002439;28;20446;-59
2021/12/13 08:33:46;;;;;;;1.30;0.90;;;19.70;39.00;;;;;;5003494;28;20462;-59
2021/12/13 08:36:15;;;;;;;1.83;1.10;;;19.70;39.00;;;;;;5005443;28;20456;-59
2021/12/13 08:38:49;;;;;;;0.70;0.70;;;19.70;39.00;;;;;;5001961;28;20460;-59
2021/12/13 08:41:15;;;;;;;1.20;1.00;;;19.70;39.00;;;;;;5005578;28;20466;-59
2021/12/13 08:43:42;;;;;;;1.20;1.10;;;19.70;39.00;;;;;;5003285;28;20514;-59
2021/12/13 08:46:10;;;;;;;1.10;1.00;;;19.70;39.00;;;;;;5004212;28;20309;-59
2021/12/13 08:48:47;;;;;;;0.80;0.80;;;19.70;39.70;;;;;;5001462;28;20577;-59
2021/12/13 08:51:20;;;;;;;1.20;0.80;;;19.70;39.00;;;;;;5004030;28;21017;-60
2021/12/13 08:53:58;;;;;;;1.10;1.00;;;19.70;39.00;;;;;;5009024;28;20460;-63
2021/12/13 08:56:25;;;;;;;1.10;1.00;;;19.70;39.00;;;;;;5002070;28;20446;-60
2021/12/13 08:58:59;;;;;;;0.70;0.70;;;19.70;39.00;;;;;;5001990;28;20539;-59
2021/12/13 09:01:28;;;;;;;1.40;1.30;;;19.70;39.00;;;;;;5001621;28;20495;-61
2021/12/13 09:03:54;;;;;;;0.93;0.83;;;19.70;39.00;;;;;;5000987;28;20454;-60
2021/12/13 09:06:35;;;;;;;1.20;0.97;;;19.80;39.00;;;;;;5004823;28;20537;-60
2021/12/13 09:09:13;;;;;;;1.03;0.80;;;19.80;39.00;;;;;;5005123;28;20474;-59
2021/12/13 09:11:56;;;;;;;1.00;0.90;;;19.80;39.00;;;;;;5000100;28;20532;-58
2021/12/13 09:14:39;;;;;;;1.10;1.00;;;19.80;39.00;;;;;;5004017;28;20424;-59
2021/12/13 09:17:22;;;;;;;0.90;0.73;;;19.80;39.00;;;;;;4996503;28;20482;-59
2021/12/13 09:19:49;;;;;;;0.80;0.80;;;19.80;39.00;;;;;;5001948;28;20468;-58
2021/12/13 09:22:33;;;;;;;1.10;1.00;;;19.80;39.00;;;;;;5000675;28;20814;-58
2021/12/13 09:25:26;;;;;;;1.20;1.00;;;19.80;39.00;;;;;;4998700;28;20509;-58
2021/12/13 09:28:01;;;;;;;1.10;1.00;;;19.80;39.00;;;;;;5004912;28;20520;-58
2021/12/13 09:30:41;;;;;;;0.93;0.87;;;19.80;39.00;;;;;;5002253;28;20795;-58
2021/12/13 09:33:16;;;;;;;1.00;0.90;;;19.80;39.00;;;;;;5000821;28;20457;-58
2021/12/13 09:35:56;;;;;;;1.10;0.97;;;19.80;39.00;;;;;;4998071;28;20456;-58
2021/12/13 09:38:30;;;;;;;0.80;0.80;;;19.80;39.00;;;;;;5000833;28;20861;-58
2021/12/13 09:41:17;;;;;;;0.80;0.80;;;19.80;39.00;;;;;;5001952;28;20919;-58
2021/12/13 09:43:51;;;;;;;0.80;0.77;;;19.80;39.00;;;;;;4998074;28;20507;-57
2021/12/13 09:46:27;;;;;;;0.90;0.90;;;19.80;39.00;;;;;;5001683;28;20540;-58
2021/12/13 09:48:55;;;;;;;1.00;0.90;;;19.80;39.00;;;;;;5004590;28;20464;-57
2021/12/13 09:51:46;;;;;;;1.00;0.90;;;19.80;39.00;;;;;;5000553;28;25314;-57
2021/12/13 09:54:14;;;;;;;0.90;0.80;;;19.80;39.00;;;;;;5002555;28;20574;-57
2021/12/13 09:56:49;;;;;;;0.80;0.80;;;19.80;39.00;;;;;;5001108;28;20515;-57
2021/12/13 09:59:35;;;;;;;1.00;0.90;;;19.80;39.00;;;;;;5001858;28;20985;-57
2021/12/13 10:02:05;;;;;;;0.90;0.90;;;19.80;39.00;;;;;;5001252;28;20501;-57
2021/12/13 10:04:36;;;;;;;0.80;0.70;;;19.80;39.00;;;;;;5004317;28;20436;-60
2021/12/13 10:07:13;;;;;;;1.20;0.80;;;19.70;39.00;;;;;;5000127;28;20456;-58
2021/12/13 10:09:47;;;;;;;0.97;0.87;;;19.70;39.00;;;;;;5003208;28;20449;-58
2021/12/13 10:12:24;;;;;;;0.80;0.80;;;19.70;39.00;;;;;;4998575;28;20433;-57
2021/12/13 10:14:54;;;;;;;1.10;1.00;;;19.70;39.00;;;;;;5001808;28;20443;-57
2021/12/13 10:17:23;;;;;;;0.73;0.70;;;19.70;39.00;;;;;;5002088;28;20474;-57
2021/12/13 10:20:00;;;;;;;0.70;0.70;;;19.70;39.00;;;;;;5008072;28;20571;-58
2021/12/13 10:22:29;;;;;;;1.00;0.90;;;19.70;39.00;;;;;;5018439;28;20487;-59
2021/12/13 10:24:59;;;;;;;0.83;0.83;;;19.70;39.00;;;;;;5019651;28;20483;-58
2021/12/13 10:27:25;;;;;;;1.10;0.87;;;19.70;39.00;;;;;;5016649;28;20459;-58
2021/12/13 10:29:54;;;;;;;0.87;0.80;;;19.70;39.00;;;;;;5021835;28;20440;-57
2021/12/13 10:32:24;;;;;;;3.13;0.90;;;19.70;39.00;;;;;;5018346;28;20221;-57
2021/12/13 10:34:56;;;;;;;1.00;0.80;;;19.70;39.00;;;;;;5011418;28;20836;-57
2021/12/13 10:37:34;;;;;;;0.80;0.80;;;19.70;39.00;;;;;;5001729;28;21026;-57
2021/12/13 10:40:14;;;;;;;1.00;0.90;;;19.70;39.00;;;;;;5016330;28;20432;-57
2021/12/13 10:42:45;;;;;;;0.90;0.80;;;19.70;39.00;;;;;;5015886;28;20453;-58
2021/12/13 10:45:23;;;;;;;1.20;1.10;;;19.70;39.00;;;;;;5012376;28;20531;-58
2021/12/13 10:47:53;;;;;;;1.10;0.90;;;19.70;39.00;;;;;;5014055;28;20504;-58
2021/12/13 10:50:35;;;;;;;1.80;0.80;;;19.70;39.00;;;;;;5014497;28;20408;-58
2021/12/13 10:53:04;;;;;;;1.33;0.90;;;19.70;39.00;;;;;;5017275;28;20965;-59
2021/12/13 10:55:44;;;;;;;0.90;0.83;;;19.70;39.00;;;;;;5016624;28;20450;-57
2021/12/13 10:58:13;;;;;;;1.20;0.97;;;19.70;39.00;;;;;;5018274;28;20477;-57
2021/12/13 11:00:44;;;;;;;1.60;0.90;;;19.70;39.00;;;;;;5015013;28;20424;-57
2021/12/13 11:03:17;;;;;;;0.83;0.83;;;19.70;39.00;;;;;;5014467;28;20453;-57
2021/12/13 11:05:43;;;;;;;1.07;0.73;;;19.70;39.00;;;;;;5017624;28;20553;-57
2021/12/13 11:08:12;;;;;;;1.67;0.97;;;19.70;39.00;;;;;;5018864;28;20500;-57
2021/12/13 11:10:47;;;;;;;0.90;0.80;;;19.70;39.00;;;;;;5016072;28;20465;-57
2021/12/13 11:13:14;;;;;;;0.90;0.70;;;19.70;39.00;;;;;;5015028;28;20854;-57
2021/12/13 11:15:43;;;;;;;1.10;0.90;;;19.70;39.00;;;;;;5018686;28;20503;-57
2021/12/13 11:18:14;;;;;;;1.00;0.93;;;19.70;39.00;;;;;;5017279;28;20480;-57
2021/12/13 11:20:48;;;;;;;0.70;0.67;;;19.70;39.70;;;;;;5020218;28;20460;-57
2021/12/13 11:23:16;;;;;;;1.23;1.00;;;19.70;39.00;;;;;;5019196;28;20499;-57
2021/12/13 11:25:46;;;;;;;0.60;0.50;;;19.70;39.00;;;;;;5016406;28;20518;-57
2021/12/13 11:28:13;;;;;;;1.43;0.80;;;19.70;39.00;;;;;;5013902;28;20457;-57
2021/12/13 11:30:43;;;;;;;1.33;1.00;;;19.70;39.00;;;;;;5007220;28;20449;-57
2021/12/13 11:33:20;;;;;;;3.03;1.00;;;19.70;39.00;;;;;;5004173;28;20437;-57
2021/12/13 11:36:12;;;;;;;2.33;0.83;;;19.70;39.00;;;;;;5003127;28;20457;-57
2021/12/13 11:39:20;;;;;;;1.10;0.97;;;19.70;39.00;;;;;;4997846;28;20472;-57
2021/12/13 11:42:17;;;;;;;0.70;0.70;;;19.70;39.00;;;;;;5004431;28;20457;-57
2021/12/13 11:45:20;;;;;;;1.10;1.00;;;19.70;39.00;;;;;;4997228;28;20457;-57
2021/12/13 11:48:12;;;;;;;0.93;0.80;;;19.70;39.00;;;;;;5001108;28;21033;-57
2021/12/13 11:50:51;;;;;;;0.80;0.77;;;19.70;39.10;;;;;;5004522;28;20456;-57
2021/12/13 11:53:49;;;;;;;0.90;0.80;;;19.70;39.10;;;;;;5001057;28;20466;-57
2021/12/13 11:56:39;;;;;;;1.00;0.90;;;19.70;39.00;;;;;;5001672;28;20488;-57
2021/12/13 11:59:11;;;;;;;0.80;0.70;;;19.70;39.10;;;;;;4999303;28;20963;-57
2021/12/13 12:02:00;;;;;;;1.10;0.80;;;19.60;38.90;;;;;;5002950;28;20779;-57
2021/12/13 12:05:05;;;;;;;0.70;0.70;;;19.60;39.00;;;;;;5015654;23;20778;-63
2021/12/13 12:07:49;;;;;;;0.93;0.73;;;19.60;39.00;;;;;;4980418;28;20462;-62
2021/12/13 12:10:47;;;;;;;1.00;0.77;;;19.60;39.10;;;;;;4981065;28;20470;-62
2021/12/13 12:13:16;;;;;;;0.93;0.80;;;19.60;39.00;;;;;;4982576;28;20441;-62
2021/12/13 12:15:44;;;;;;;4.10;0.83;;;19.60;39.00;;;;;;4981237;28;20486;-62
2021/12/13 12:18:16;;;;;;;0.83;0.80;;;19.60;39.10;;;;;;4984402;28;20982;-62
2021/12/13 12:21:11;;;;;;;0.70;0.60;;;19.60;39.10;;;;;;4979393;28;20481;-62
2021/12/13 12:23:40;;;;;;;0.80;0.80;;;19.60;39.10;;;;;;4980199;28;20987;-62
2021/12/13 12:26:07;;;;;;;1.00;0.70;;;19.70;39.20;;;;;;4983691;28;20487;-62
2021/12/13 12:28:34;;;;;;;0.70;0.67;;;19.60;39.10;;;;;;4983094;28;20959;-62
2021/12/13 12:31:01;;;;;;;0.83;0.80;;;19.60;39.10;;;;;;4984274;28;20533;-61
2021/12/13 12:33:33;;;;;;;0.83;0.70;;;19.60;39.10;;;;;;5003667;28;20516;-62
2021/12/13 12:36:04;;;;;;;0.60;0.60;;;19.60;39.20;;;;;;4999842;28;20453;-62
2021/12/13 12:38:33;;;;;;;0.80;0.60;;;19.60;39.10;;;;;;5003901;28;20962;-61
2021/12/13 12:41:37;;;;;;;0.70;0.70;;;19.60;39.10;;;;;;5001240;28;20446;-63
2021/12/13 12:44:04;;;;;;;0.70;0.70;;;19.60;39.20;;;;;;5001072;28;20463;-62
2021/12/13 12:46:40;;;;;;;0.80;0.70;;;19.60;39.10;;;;;;5001944;28;20997;-63
2021/12/13 12:49:14;;;;;;;0.80;0.70;;;19.60;39.20;;;;;;5001945;28;20457;-62
2021/12/13 12:51:41;;;;;;;0.60;0.60;;;19.60;39.00;;;;;;5002692;28;20449;-62
2021/12/13 12:54:18;;;;;;;0.70;0.60;;;19.60;39.10;;;;;;5003474;28;20442;-62
2021/12/13 12:56:57;;;;;;;0.73;0.67;;;19.60;39.00;;;;;;5000098;28;20438;-62
2021/12/13 12:59:28;;;;;;;0.77;0.77;;;19.60;39.10;;;;;;5001061;28;20465;-62
2021/12/13 13:02:15;;;;;;;0.97;0.70;;;19.60;39.00;;;;;;5001447;28;20446;-63
2021/12/13 13:04:51;;;;;;;0.77;0.70;;;19.60;39.00;;;;;;5006520;28;20863;-63
2021/12/13 13:07:24;;;;;;;0.70;0.70;;;19.60;39.10;;;;;;5002297;28;20449;-62
2021/12/13 13:10:24;;;;;;;0.60;0.50;;;19.60;39.00;;;;;;4998215;28;20977;-62
2021/12/13 13:12:53;;;;;;;0.80;0.80;;;19.60;39.00;;;;;;5000531;28;20461;-63
2021/12/13 13:15:35;;;;;;;0.80;0.70;;;19.60;39.00;;;;;;4995958;28;20454;-62
2021/12/13 13:18:09;;;;;;;0.83;0.70;;;19.60;38.90;;;;;;5003077;28;20482;-62
2021/12/13 13:20:58;;;;;;;0.70;0.70;;;19.60;39.00;;;;;;4999451;28;20965;-62
2021/12/13 13:23:26;;;;;;;2.93;0.67;;;19.60;38.90;;;;;;4996838;28;20798;-61
2021/12/13 13:25:59;;;;;;;0.90;0.70;;;19.60;39.00;;;;;;5003355;28;20447;-62
2021/12/13 13:28:34;;;;;;;0.60;0.57;;;19.60;39.00;;;;;;4997963;28;20460;-61
2021/12/13 13:31:30;;;;;;;0.77;0.63;;;19.60;39.00;;;;;;4996473;28;20442;-61
2021/12/13 13:33:58;;;;;;;1.07;0.70;;;19.60;38.90;;;;;;4998847;28;20504;-61
2021/12/13 13:36:33;;;;;;;0.70;0.70;;;19.60;39.10;;;;;;5000138;28;20544;-61